LFQQ

Lille-Lesquin Airport

Airport
ICAO code
LFQQ
IATA Code
LIL
Summary
ICAO Region
EUR
ICAO Territory
Location

, Nord-Pas-de-Calais

Serving
Lille
Elevation
157 ft
Coordinates
50° 33' 43" N , 3° 5' 22" E
Metar
Observation
LFQQ 030130Z AUTO 04011KT 9000 OVC018 02/M01 Q1021 TEMPO 4000 DZ BR OVC008
Station
Lille
Date/Time
2022-12-03 01:30:00
Wind direction
40°
Wind speed
11 kts
Lowest cloud amount
overcast
Temperature
2°C
Dew point
-1°C
Humidity
80%
QNH
1021 hPa
Weather condition
n/a

Runways

Designator Length Width Surface Rops
2/20 1580 30 ASP Yes/Yes
8/26 2825 45 ASP Yes/Yes

Airport map

Aerial View

SKYbrary Partners:

Safety knowledge contributed by: